Weather at Rytel-Uboga Airstrip

Public forecast

Using degrees Celsius for public forecast. Weather courtesy of forecast.io.

Closest aviation weather report (METAR) to Rytel-Uboga Airstrip

Closest report is Bydgoszcz Ignacy Jan Paderewski Airport, 38.9 nm (72.1 km) S. Retrieved 2021/06/13 16:30 UTC (6 minutes ago):

EPBY 131630Z 32015KT CAVOK 19/07 Q1020

Closest aviation forecast (TAF) to Rytel-Uboga Airstrip

Closest forecast is Bydgoszcz Ignacy Jan Paderewski Airport, 38.9 nm (72.1 km) S. Retrieved 2021/06/13 12:00 UTC (5 hours ago):

TAF EPBY 131130Z 1312/1412 32015KT CAVOK TEMPO 1312/1317 31018G30KT BECMG 1317/1320 26008KT